sensor_id;sensor_type;location;lat;lon;timestamp;P1;durP1;ratioP1;P2;durP2;ratioP2
31081;SDS011;17737;52.586;13.284;2023-03-17T00:00:43;0.70;;;0.70;;
31081;SDS011;17737;52.586;13.284;2023-03-17T00:03:17;0.82;;;0.60;;
31081;SDS011;17737;52.586;13.284;2023-03-17T00:05:50;0.70;;;0.70;;
31081;SDS011;17737;52.586;13.284;2023-03-17T00:08:21;0.60;;;0.60;;
31081;SDS011;17737;52.586;13.284;2023-03-17T00:10:52;0.70;;;0.70;;
31081;SDS011;17737;52.586;13.284;2023-03-17T00:13:22;0.68;;;0.68;;
31081;SDS011;17737;52.586;13.284;2023-03-17T00:15:51;0.75;;;0.75;;
31081;SDS011;17737;52.586;13.284;2023-03-17T00:18:24;0.80;;;0.80;;
31081;SDS011;17737;52.586;13.284;2023-03-17T00:23:20;0.80;;;0.80;;
31081;SDS011;17737;52.586;13.284;2023-03-17T00:25:51;0.47;;;0.47;;
31081;SDS011;17737;52.586;13.284;2023-03-17T00:28:20;0.60;;;0.60;;
31081;SDS011;17737;52.586;13.284;2023-03-17T00:30:51;0.68;;;0.65;;
31081;SDS011;17737;52.586;13.284;2023-03-17T00:33:25;0.60;;;0.60;;
31081;SDS011;17737;52.586;13.284;2023-03-17T00:35:55;1.55;;;0.60;;
31081;SDS011;17737;52.586;13.284;2023-03-17T00:38:24;0.95;;;0.85;;
31081;SDS011;17737;52.586;13.284;2023-03-17T00:40:53;0.68;;;0.63;;
31081;SDS011;17737;52.586;13.284;2023-03-17T00:43:21;0.70;;;0.70;;
31081;SDS011;17737;52.586;13.284;2023-03-17T00:45:49;0.50;;;0.50;;
31081;SDS011;17737;52.586;13.284;2023-03-17T00:48:18;0.82;;;0.50;;
31081;SDS011;17737;52.586;13.284;2023-03-17T00:50:49;0.75;;;0.63;;
31081;SDS011;17737;52.586;13.284;2023-03-17T00:53:18;0.50;;;0.50;;
31081;SDS011;17737;52.586;13.284;2023-03-17T00:55:47;0.70;;;0.70;;
31081;SDS011;17737;52.586;13.284;2023-03-17T00:58:16;0.88;;;0.80;;
31081;SDS011;17737;52.586;13.284;2023-03-17T01:00:52;0.75;;;0.60;;
31081;SDS011;17737;52.586;13.284;2023-03-17T01:03:20;0.75;;;0.75;;
31081;SDS011;17737;52.586;13.284;2023-03-17T01:05:51;0.60;;;0.60;;
31081;SDS011;17737;52.586;13.284;2023-03-17T01:08:22;0.60;;;0.60;;
31081;SDS011;17737;52.586;13.284;2023-03-17T01:10:51;0.60;;;0.60;;
31081;SDS011;17737;52.586;13.284;2023-03-17T01:13:19;0.60;;;0.60;;
31081;SDS011;17737;52.586;13.284;2023-03-17T01:15:48;0.50;;;0.50;;
31081;SDS011;17737;52.586;13.284;2023-03-17T01:20:48;0.60;;;0.60;;
31081;SDS011;17737;52.586;13.284;2023-03-17T01:23:19;1.20;;;0.90;;
31081;SDS011;17737;52.586;13.284;2023-03-17T01:25:47;0.90;;;0.70;;
31081;SDS011;17737;52.586;13.284;2023-03-17T01:28:16;0.70;;;0.70;;
31081;SDS011;17737;52.586;13.284;2023-03-17T01:30:46;0.60;;;0.60;;
31081;SDS011;17737;52.586;13.284;2023-03-17T01:33:15;0.80;;;0.68;;
31081;SDS011;17737;52.586;13.284;2023-03-17T01:35:43;0.55;;;0.55;;
31081;SDS011;17737;52.586;13.284;2023-03-17T01:38:13;0.57;;;0.50;;
31081;SDS011;17737;52.586;13.284;2023-03-17T01:40:43;0.52;;;0.52;;
31081;SDS011;17737;52.586;13.284;2023-03-17T01:43:16;0.60;;;0.60;;
31081;SDS011;17737;52.586;13.284;2023-03-17T01:48:57;0.70;;;0.70;;
31081;SDS011;17737;52.586;13.284;2023-03-17T01:51:53;0.65;;;0.60;;
31081;SDS011;17737;52.586;13.284;2023-03-17T01:54:34;0.70;;;0.50;;
31081;SDS011;17737;52.586;13.284;2023-03-17T01:57:10;0.52;;;0.52;;
31081;SDS011;17737;52.586;13.284;2023-03-17T01:59:46;0.50;;;0.50;;
31081;SDS011;17737;52.586;13.284;2023-03-17T02:02:19;0.80;;;0.70;;
31081;SDS011;17737;52.586;13.284;2023-03-17T02:04:55;0.80;;;0.80;;
31081;SDS011;17737;52.586;13.284;2023-03-17T02:07:25;0.60;;;0.60;;
31081;SDS011;17737;52.586;13.284;2023-03-17T02:09:55;0.85;;;0.70;;
31081;SDS011;17737;52.586;13.284;2023-03-17T02:12:24;0.60;;;0.60;;
31081;SDS011;17737;52.586;13.284;2023-03-17T02:14:55;0.70;;;0.70;;
31081;SDS011;17737;52.586;13.284;2023-03-17T02:17:25;0.93;;;0.70;;
31081;SDS011;17737;52.586;13.284;2023-03-17T02:19:55;0.80;;;0.80;;
31081;SDS011;17737;52.586;13.284;2023-03-17T02:22:24;0.95;;;0.88;;
31081;SDS011;17737;52.586;13.284;2023-03-17T02:24:53;0.65;;;0.63;;
31081;SDS011;17737;52.586;13.284;2023-03-17T02:27:26;0.88;;;0.80;;
31081;SDS011;17737;52.586;13.284;2023-03-17T02:30:00;0.60;;;0.60;;
31081;SDS011;17737;52.586;13.284;2023-03-17T02:32:29;0.77;;;0.77;;
31081;SDS011;17737;52.586;13.284;2023-03-17T02:35:00;0.88;;;0.70;;
31081;SDS011;17737;52.586;13.284;2023-03-17T02:37:31;0.85;;;0.70;;
31081;SDS011;17737;52.586;13.284;2023-03-17T02:42:28;0.60;;;0.60;;
31081;SDS011;17737;52.586;13.284;2023-03-17T02:44:56;0.60;;;0.60;;
31081;SDS011;17737;52.586;13.284;2023-03-17T02:47:24;0.60;;;0.60;;
31081;SDS011;17737;52.586;13.284;2023-03-17T02:49:52;0.80;;;0.80;;
31081;SDS011;17737;52.586;13.284;2023-03-17T02:52:21;0.60;;;0.57;;
31081;SDS011;17737;52.586;13.284;2023-03-17T02:54:50;1.00;;;0.77;;
31081;SDS011;17737;52.586;13.284;2023-03-17T02:57:18;0.75;;;0.60;;
31081;SDS011;17737;52.586;13.284;2023-03-17T02:59:47;0.70;;;0.70;;
31081;SDS011;17737;52.586;13.284;2023-03-17T03:02:16;0.90;;;0.70;;
31081;SDS011;17737;52.586;13.284;2023-03-17T03:04:44;0.80;;;0.80;;
31081;SDS011;17737;52.586;13.284;2023-03-17T03:07:12;0.85;;;0.75;;
31081;SDS011;17737;52.586;13.284;2023-03-17T03:09:41;0.60;;;0.60;;
31081;SDS011;17737;52.586;13.284;2023-03-17T03:12:10;0.82;;;0.70;;
31081;SDS011;17737;52.586;13.284;2023-03-17T03:14:39;0.60;;;0.60;;
31081;SDS011;17737;52.586;13.284;2023-03-17T03:17:07;0.95;;;0.85;;
31081;SDS011;17737;52.586;13.284;2023-03-17T03:19:36;0.70;;;0.60;;
31081;SDS011;17737;52.586;13.284;2023-03-17T03:22:04;0.57;;;0.57;;
31081;SDS011;17737;52.586;13.284;2023-03-17T03:24:33;0.98;;;0.60;;
31081;SDS011;17737;52.586;13.284;2023-03-17T03:27:02;0.70;;;0.70;;
31081;SDS011;17737;52.586;13.284;2023-03-17T03:29:32;0.60;;;0.60;;
31081;SDS011;17737;52.586;13.284;2023-03-17T03:32:00;0.60;;;0.60;;
31081;SDS011;17737;52.586;13.284;2023-03-17T03:34:28;0.60;;;0.60;;
31081;SDS011;17737;52.586;13.284;2023-03-17T03:36:57;0.52;;;0.40;;
31081;SDS011;17737;52.586;13.284;2023-03-17T03:39:24;0.77;;;0.60;;
31081;SDS011;17737;52.586;13.284;2023-03-17T03:41:53;0.73;;;0.70;;
31081;SDS011;17737;52.586;13.284;2023-03-17T03:44:22;0.70;;;0.65;;
31081;SDS011;17737;52.586;13.284;2023-03-17T03:46:52;0.70;;;0.70;;
31081;SDS011;17737;52.586;13.284;2023-03-17T03:49:20;0.40;;;0.40;;
31081;SDS011;17737;52.586;13.284;2023-03-17T03:51:48;0.50;;;0.50;;
31081;SDS011;17737;52.586;13.284;2023-03-17T03:54:16;0.60;;;0.60;;
31081;SDS011;17737;52.586;13.284;2023-03-17T03:56:44;0.50;;;0.50;;
31081;SDS011;17737;52.586;13.284;2023-03-17T03:59:12;0.50;;;0.50;;
31081;SDS011;17737;52.586;13.284;2023-03-17T04:01:40;0.50;;;0.50;;
31081;SDS011;17737;52.586;13.284;2023-03-17T04:04:09;0.70;;;0.70;;
31081;SDS011;17737;52.586;13.284;2023-03-17T04:06:37;0.70;;;0.70;;
31081;SDS011;17737;52.586;13.284;2023-03-17T04:09:05;0.80;;;0.80;;
31081;SDS011;17737;52.586;13.284;2023-03-17T04:11:35;0.90;;;0.80;;
31081;SDS011;17737;52.586;13.284;2023-03-17T04:14:03;0.55;;;0.55;;
31081;SDS011;17737;52.586;13.284;2023-03-17T04:16:32;0.60;;;0.60;;
31081;SDS011;17737;52.586;13.284;2023-03-17T04:19:00;0.60;;;0.60;;
31081;SDS011;17737;52.586;13.284;2023-03-17T04:21:29;0.60;;;0.60;;
31081;SDS011;17737;52.586;13.284;2023-03-17T04:23:57;0.60;;;0.60;;
31081;SDS011;17737;52.586;13.284;2023-03-17T04:26:25;0.70;;;0.70;;
31081;SDS011;17737;52.586;13.284;2023-03-17T04:28:53;0.65;;;0.65;;
31081;SDS011;17737;52.586;13.284;2023-03-17T04:31:21;0.80;;;0.80;;
31081;SDS011;17737;52.586;13.284;2023-03-17T04:33:49;0.75;;;0.60;;
31081;SDS011;17737;52.586;13.284;2023-03-17T04:36:18;0.88;;;0.70;;
31081;SDS011;17737;52.586;13.284;2023-03-17T04:38:49;0.70;;;0.70;;
31081;SDS011;17737;52.586;13.284;2023-03-17T04:43:46;0.70;;;0.70;;
31081;SDS011;17737;52.586;13.284;2023-03-17T04:46:14;1.02;;;0.60;;
31081;SDS011;17737;52.586;13.284;2023-03-17T04:48:42;0.93;;;0.80;;
31081;SDS011;17737;52.586;13.284;2023-03-17T04:51:10;0.65;;;0.65;;
31081;SDS011;17737;52.586;13.284;2023-03-17T04:53:38;0.60;;;0.60;;
31081;SDS011;17737;52.586;13.284;2023-03-17T04:56:08;0.60;;;0.60;;
31081;SDS011;17737;52.586;13.284;2023-03-17T04:58:35;0.90;;;0.63;;
31081;SDS011;17737;52.586;13.284;2023-03-17T05:01:04;0.95;;;0.70;;
31081;SDS011;17737;52.586;13.284;2023-03-17T05:06:02;0.57;;;0.57;;
31081;SDS011;17737;52.586;13.284;2023-03-17T05:08:31;0.82;;;0.73;;
31081;SDS011;17737;52.586;13.284;2023-03-17T05:10:59;0.70;;;0.70;;
31081;SDS011;17737;52.586;13.284;2023-03-17T05:13:28;0.77;;;0.77;;
31081;SDS011;17737;52.586;13.284;2023-03-17T05:15:56;0.70;;;0.70;;
31081;SDS011;17737;52.586;13.284;2023-03-17T05:18:26;0.80;;;0.80;;
31081;SDS011;17737;52.586;13.284;2023-03-17T05:20:54;0.65;;;0.65;;
31081;SDS011;17737;52.586;13.284;2023-03-17T05:23:22;1.35;;;0.85;;
31081;SDS011;17737;52.586;13.284;2023-03-17T05:25:51;0.70;;;0.70;;
31081;SDS011;17737;52.586;13.284;2023-03-17T05:28:19;0.67;;;0.67;;
31081;SDS011;17737;52.586;13.284;2023-03-17T05:30:49;0.70;;;0.70;;
31081;SDS011;17737;52.586;13.284;2023-03-17T05:33:18;0.82;;;0.80;;
31081;SDS011;17737;52.586;13.284;2023-03-17T05:35:46;0.85;;;0.85;;
31081;SDS011;17737;52.586;13.284;2023-03-17T05:38:15;1.23;;;0.80;;
31081;SDS011;17737;52.586;13.284;2023-03-17T05:40:43;0.60;;;0.50;;
31081;SDS011;17737;52.586;13.284;2023-03-17T05:43:13;0.88;;;0.60;;
31081;SDS011;17737;52.586;13.284;2023-03-17T05:45:41;0.80;;;0.80;;
31081;SDS011;17737;52.586;13.284;2023-03-17T05:48:11;0.60;;;0.60;;
31081;SDS011;17737;52.586;13.284;2023-03-17T05:50:39;0.70;;;0.70;;
31081;SDS011;17737;52.586;13.284;2023-03-17T05:53:08;0.70;;;0.70;;
31081;SDS011;17737;52.586;13.284;2023-03-17T05:55:36;0.45;;;0.45;;
31081;SDS011;17737;52.586;13.284;2023-03-17T05:58:05;0.60;;;0.60;;
31081;SDS011;17737;52.586;13.284;2023-03-17T06:00:35;0.90;;;0.70;;
31081;SDS011;17737;52.586;13.284;2023-03-17T06:03:04;0.65;;;0.65;;
31081;SDS011;17737;52.586;13.284;2023-03-17T06:05:34;0.70;;;0.70;;
31081;SDS011;17737;52.586;13.284;2023-03-17T06:08:03;0.70;;;0.70;;
31081;SDS011;17737;52.586;13.284;2023-03-17T06:10:31;0.60;;;0.60;;
31081;SDS011;17737;52.586;13.284;2023-03-17T06:13:00;0.70;;;0.70;;
31081;SDS011;17737;52.586;13.284;2023-03-17T06:15:29;0.70;;;0.70;;
31081;SDS011;17737;52.586;13.284;2023-03-17T06:17:59;0.73;;;0.73;;
31081;SDS011;17737;52.586;13.284;2023-03-17T06:20:27;0.50;;;0.50;;
31081;SDS011;17737;52.586;13.284;2023-03-17T06:22:57;0.85;;;0.80;;
31081;SDS011;17737;52.586;13.284;2023-03-17T06:25:30;0.70;;;0.70;;
31081;SDS011;17737;52.586;13.284;2023-03-17T06:27:59;0.65;;;0.65;;
31081;SDS011;17737;52.586;13.284;2023-03-17T06:30:29;0.60;;;0.60;;
31081;SDS011;17737;52.586;13.284;2023-03-17T06:32:58;0.52;;;0.52;;
31081;SDS011;17737;52.586;13.284;2023-03-17T06:35:26;0.60;;;0.60;;
31081;SDS011;17737;52.586;13.284;2023-03-17T06:37:55;0.50;;;0.50;;
31081;SDS011;17737;52.586;13.284;2023-03-17T06:40:26;0.80;;;0.80;;
31081;SDS011;17737;52.586;13.284;2023-03-17T06:42:54;0.80;;;0.80;;
31081;SDS011;17737;52.586;13.284;2023-03-17T06:45:22;1.08;;;0.60;;
31081;SDS011;17737;52.586;13.284;2023-03-17T06:47:50;0.63;;;0.63;;
31081;SDS011;17737;52.586;13.284;2023-03-17T06:50:18;0.95;;;0.55;;
31081;SDS011;17737;52.586;13.284;2023-03-17T06:52:47;0.60;;;0.60;;
31081;SDS011;17737;52.586;13.284;2023-03-17T06:55:17;0.57;;;0.57;;
31081;SDS011;17737;52.586;13.284;2023-03-17T07:00:16;0.70;;;0.70;;
31081;SDS011;17737;52.586;13.284;2023-03-17T07:02:46;0.73;;;0.73;;
31081;SDS011;17737;52.586;13.284;2023-03-17T07:05:14;0.60;;;0.60;;
31081;SDS011;17737;52.586;13.284;2023-03-17T07:07:43;0.50;;;0.50;;
31081;SDS011;17737;52.586;13.284;2023-03-17T07:10:11;0.50;;;0.50;;
31081;SDS011;17737;52.586;13.284;2023-03-17T07:12:43;0.65;;;0.65;;
31081;SDS011;17737;52.586;13.284;2023-03-17T07:17:42;0.63;;;0.63;;
31081;SDS011;17737;52.586;13.284;2023-03-17T07:20:12;0.65;;;0.65;;
31081;SDS011;17737;52.586;13.284;2023-03-17T07:22:40;0.75;;;0.57;;
31081;SDS011;17737;52.586;13.284;2023-03-17T07:25:08;0.50;;;0.50;;
31081;SDS011;17737;52.586;13.284;2023-03-17T07:27:37;0.60;;;0.50;;
31081;SDS011;17737;52.586;13.284;2023-03-17T07:30:07;0.88;;;0.65;;
31081;SDS011;17737;52.586;13.284;2023-03-17T07:32:38;1.17;;;0.57;;
31081;SDS011;17737;52.586;13.284;2023-03-17T07:35:06;0.70;;;0.70;;
31081;SDS011;17737;52.586;13.284;2023-03-17T07:37:34;0.70;;;0.70;;
31081;SDS011;17737;52.586;13.284;2023-03-17T07:40:02;0.50;;;0.50;;
31081;SDS011;17737;52.586;13.284;2023-03-17T07:42:31;0.50;;;0.50;;
31081;SDS011;17737;52.586;13.284;2023-03-17T07:44:59;0.50;;;0.50;;
31081;SDS011;17737;52.586;13.284;2023-03-17T07:47:29;0.50;;;0.50;;
31081;SDS011;17737;52.586;13.284;2023-03-17T07:49:56;0.60;;;0.60;;
31081;SDS011;17737;52.586;13.284;2023-03-17T07:52:25;0.50;;;0.50;;
31081;SDS011;17737;52.586;13.284;2023-03-17T07:54:53;0.85;;;0.50;;
31081;SDS011;17737;52.586;13.284;2023-03-17T07:57:21;0.50;;;0.50;;
31081;SDS011;17737;52.586;13.284;2023-03-17T07:59:49;0.50;;;0.50;;
31081;SDS011;17737;52.586;13.284;2023-03-17T08:02:17;0.60;;;0.60;;
31081;SDS011;17737;52.586;13.284;2023-03-17T08:04:47;0.52;;;0.52;;
31081;SDS011;17737;52.586;13.284;2023-03-17T08:07:16;0.60;;;0.60;;
31081;SDS011;17737;52.586;13.284;2023-03-17T08:09:44;0.50;;;0.50;;
31081;SDS011;17737;52.586;13.284;2023-03-17T08:12:13;0.45;;;0.45;;
31081;SDS011;17737;52.586;13.284;2023-03-17T08:14:41;0.50;;;0.50;;
31081;SDS011;17737;52.586;13.284;2023-03-17T08:17:09;0.40;;;0.40;;
31081;SDS011;17737;52.586;13.284;2023-03-17T08:19:38;0.30;;;0.30;;
31081;SDS011;17737;52.586;13.284;2023-03-17T08:22:09;0.50;;;0.50;;
31081;SDS011;17737;52.586;13.284;2023-03-17T08:24:37;0.40;;;0.40;;
31081;SDS011;17737;52.586;13.284;2023-03-17T08:27:08;0.43;;;0.43;;
31081;SDS011;17737;52.586;13.284;2023-03-17T08:29:36;0.50;;;0.50;;
31081;SDS011;17737;52.586;13.284;2023-03-17T08:34:34;0.50;;;0.50;;
31081;SDS011;17737;52.586;13.284;2023-03-17T08:37:03;0.40;;;0.40;;
31081;SDS011;17737;52.586;13.284;2023-03-17T08:39:34;0.40;;;0.40;;
31081;SDS011;17737;52.586;13.284;2023-03-17T08:42:02;0.50;;;0.50;;
31081;SDS011;17737;52.586;13.284;2023-03-17T08:44:32;0.47;;;0.47;;
31081;SDS011;17737;52.586;13.284;2023-03-17T08:47:00;0.40;;;0.40;;
31081;SDS011;17737;52.586;13.284;2023-03-17T08:49:29;0.50;;;0.50;;
31081;SDS011;17737;52.586;13.284;2023-03-17T08:52:00;0.40;;;0.40;;
31081;SDS011;17737;52.586;13.284;2023-03-17T08:54:28;0.40;;;0.40;;
31081;SDS011;17737;52.586;13.284;2023-03-17T08:56:58;0.40;;;0.40;;
31081;SDS011;17737;52.586;13.284;2023-03-17T08:59:26;0.30;;;0.30;;
31081;SDS011;17737;52.586;13.284;2023-03-17T09:01:54;0.50;;;0.50;;
31081;SDS011;17737;52.586;13.284;2023-03-17T09:04:22;0.30;;;0.30;;
31081;SDS011;17737;52.586;13.284;2023-03-17T09:06:51;0.50;;;0.50;;
31081;SDS011;17737;52.586;13.284;2023-03-17T09:09:29;0.40;;;0.40;;
31081;SDS011;17737;52.586;13.284;2023-03-17T09:11:59;0.45;;;0.45;;
31081;SDS011;17737;52.586;13.284;2023-03-17T09:14:28;0.50;;;0.50;;
31081;SDS011;17737;52.586;13.284;2023-03-17T09:17:08;0.40;;;0.40;;
31081;SDS011;17737;52.586;13.284;2023-03-17T09:19:36;0.50;;;0.50;;
31081;SDS011;17737;52.586;13.284;2023-03-17T09:22:05;0.40;;;0.40;;
31081;SDS011;17737;52.586;13.284;2023-03-17T09:24:33;0.47;;;0.47;;
31081;SDS011;17737;52.586;13.284;2023-03-17T09:27:03;0.30;;;0.30;;
31081;SDS011;17737;52.586;13.284;2023-03-17T09:29:32;0.30;;;0.30;;
31081;SDS011;17737;52.586;13.284;2023-03-17T09:32:00;0.30;;;0.30;;
31081;SDS011;17737;52.586;13.284;2023-03-17T09:34:28;0.35;;;0.35;;
31081;SDS011;17737;52.586;13.284;2023-03-17T09:36:56;0.30;;;0.30;;
31081;SDS011;17737;52.586;13.284;2023-03-17T09:39:25;0.35;;;0.35;;
31081;SDS011;17737;52.586;13.284;2023-03-17T09:41:56;0.40;;;0.40;;
31081;SDS011;17737;52.586;13.284;2023-03-17T09:44:57;0.50;;;0.50;;
31081;SDS011;17737;52.586;13.284;2023-03-17T09:48:02;0.43;;;0.40;;
31081;SDS011;17737;52.586;13.284;2023-03-17T09:50:49;0.30;;;0.30;;
31081;SDS011;17737;52.586;13.284;2023-03-17T09:53:24;0.30;;;0.30;;
31081;SDS011;17737;52.586;13.284;2023-03-17T09:55:59;0.40;;;0.40;;
31081;SDS011;17737;52.586;13.284;2023-03-17T09:58:35;0.40;;;0.40;;
31081;SDS011;17737;52.586;13.284;2023-03-17T10:01:08;0.40;;;0.40;;
31081;SDS011;17737;52.586;13.284;2023-03-17T10:03:38;1.85;;;0.47;;
31081;SDS011;17737;52.586;13.284;2023-03-17T10:06:18;0.40;;;0.40;;
31081;SDS011;17737;52.586;13.284;2023-03-17T10:09:14;0.30;;;0.30;;
31081;SDS011;17737;52.586;13.284;2023-03-17T10:14:33;0.22;;;0.22;;
31081;SDS011;17737;52.586;13.284;2023-03-17T10:17:17;0.40;;;0.40;;
31081;SDS011;17737;52.586;13.284;2023-03-17T10:19:51;0.40;;;0.40;;
31081;SDS011;17737;52.586;13.284;2023-03-17T10:22:27;0.30;;;0.30;;
31081;SDS011;17737;52.586;13.284;2023-03-17T10:25:04;0.30;;;0.30;;
31081;SDS011;17737;52.586;13.284;2023-03-17T10:27:42;0.30;;;0.30;;
31081;SDS011;17737;52.586;13.284;2023-03-17T10:30:19;0.40;;;0.40;;
31081;SDS011;17737;52.586;13.284;2023-03-17T10:32:49;0.45;;;0.40;;
31081;SDS011;17737;52.586;13.284;2023-03-17T10:35:19;0.32;;;0.32;;
31081;SDS011;17737;52.586;13.284;2023-03-17T10:37:49;0.30;;;0.30;;
31081;SDS011;17737;52.586;13.284;2023-03-17T10:40:37;0.32;;;0.32;;
31081;SDS011;17737;52.586;13.284;2023-03-17T10:43:06;0.30;;;0.30;;
31081;SDS011;17737;52.586;13.284;2023-03-17T10:45:53;0.40;;;0.40;;
31081;SDS011;17737;52.586;13.284;2023-03-17T10:48:26;0.40;;;0.40;;
31081;SDS011;17737;52.586;13.284;2023-03-17T10:51:03;0.30;;;0.30;;
31081;SDS011;17737;52.586;13.284;2023-03-17T10:53:35;0.40;;;0.40;;
31081;SDS011;17737;52.586;13.284;2023-03-17T10:56:09;0.30;;;0.30;;
31081;SDS011;17737;52.586;13.284;2023-03-17T11:01:21;0.43;;;0.43;;
31081;SDS011;17737;52.586;13.284;2023-03-17T11:03:55;0.30;;;0.30;;
31081;SDS011;17737;52.586;13.284;2023-03-17T11:06:30;0.30;;;0.30;;
31081;SDS011;17737;52.586;13.284;2023-03-17T11:09:05;0.25;;;0.25;;
31081;SDS011;17737;52.586;13.284;2023-03-17T11:11:41;0.35;;;0.35;;
31081;SDS011;17737;52.586;13.284;2023-03-17T11:14:13;0.45;;;0.45;;
31081;SDS011;17737;52.586;13.284;2023-03-17T11:16:47;0.30;;;0.30;;
31081;SDS011;17737;52.586;13.284;2023-03-17T11:19:22;0.32;;;0.32;;
31081;SDS011;17737;52.586;13.284;2023-03-17T11:22:04;0.40;;;0.40;;
31081;SDS011;17737;52.586;13.284;2023-03-17T11:24:42;0.30;;;0.30;;
31081;SDS011;17737;52.586;13.284;2023-03-17T11:27:27;0.30;;;0.30;;
31081;SDS011;17737;52.586;13.284;2023-03-17T11:30:09;0.40;;;0.40;;
31081;SDS011;17737;52.586;13.284;2023-03-17T11:32:46;0.30;;;0.30;;
31081;SDS011;17737;52.586;13.284;2023-03-17T11:35:36;0.38;;;0.38;;
31081;SDS011;17737;52.586;13.284;2023-03-17T11:38:21;0.30;;;0.30;;
31081;SDS011;17737;52.586;13.284;2023-03-17T11:47:03;0.30;;;0.30;;
31081;SDS011;17737;52.586;13.284;2023-03-17T11:49:47;0.40;;;0.40;;
31081;SDS011;17737;52.586;13.284;2023-03-17T11:52:35;0.30;;;0.30;;
31081;SDS011;17737;52.586;13.284;2023-03-17T11:55:19;0.25;;;0.25;;
31081;SDS011;17737;52.586;13.284;2023-03-17T11:57:52;0.30;;;0.30;;
31081;SDS011;17737;52.586;13.284;2023-03-17T12:00:27;0.30;;;0.30;;
31081;SDS011;17737;52.586;13.284;2023-03-17T12:03:04;0.40;;;0.40;;
31081;SDS011;17737;52.586;13.284;2023-03-17T12:05:45;0.30;;;0.30;;
31081;SDS011;17737;52.586;13.284;2023-03-17T12:08:25;0.20;;;0.20;;
31081;SDS011;17737;52.586;13.284;2023-03-17T12:10:59;0.35;;;0.35;;
31081;SDS011;17737;52.586;13.284;2023-03-17T12:13:36;1.08;;;0.30;;
31081;SDS011;17737;52.586;13.284;2023-03-17T12:16:14;0.30;;;0.30;;
31081;SDS011;17737;52.586;13.284;2023-03-17T12:18:54;0.40;;;0.40;;
31081;SDS011;17737;52.586;13.284;2023-03-17T12:21:35;0.30;;;0.30;;
31081;SDS011;17737;52.586;13.284;2023-03-17T12:24:12;0.30;;;0.30;;
31081;SDS011;17737;52.586;13.284;2023-03-17T12:26:47;0.30;;;0.30;;
31081;SDS011;17737;52.586;13.284;2023-03-17T12:29:24;0.30;;;0.30;;
31081;SDS011;17737;52.586;13.284;2023-03-17T12:32:10;0.40;;;0.40;;
31081;SDS011;17737;52.586;13.284;2023-03-17T12:34:45;0.38;;;0.38;;
31081;SDS011;17737;52.586;13.284;2023-03-17T12:37:20;0.30;;;0.30;;
31081;SDS011;17737;52.586;13.284;2023-03-17T12:39:51;0.30;;;0.30;;
31081;SDS011;17737;52.586;13.284;2023-03-17T12:42:29;0.30;;;0.30;;
31081;SDS011;17737;52.586;13.284;2023-03-17T12:48:11;0.60;;;0.40;;
31081;SDS011;17737;52.586;13.284;2023-03-17T12:51:06;0.30;;;0.30;;
31081;SDS011;17737;52.586;13.284;2023-03-17T12:53:57;0.40;;;0.40;;
31081;SDS011;17737;52.586;13.284;2023-03-17T12:56:26;0.40;;;0.40;;
31081;SDS011;17737;52.586;13.284;2023-03-17T12:59:01;0.30;;;0.30;;
31081;SDS011;17737;52.586;13.284;2023-03-17T13:01:35;0.30;;;0.30;;
31081;SDS011;17737;52.586;13.284;2023-03-17T13:04:13;0.32;;;0.32;;
31081;SDS011;17737;52.586;13.284;2023-03-17T13:06:53;0.40;;;0.40;;
31081;SDS011;17737;52.586;13.284;2023-03-17T13:09:35;0.25;;;0.25;;
31081;SDS011;17737;52.586;13.284;2023-03-17T13:15:48;0.20;;;0.20;;
31081;SDS011;17737;52.586;13.284;2023-03-17T13:21:16;0.32;;;0.32;;
31081;SDS011;17737;52.586;13.284;2023-03-17T13:23:52;0.30;;;0.30;;
31081;SDS011;17737;52.586;13.284;2023-03-17T13:29:38;0.32;;;0.32;;
31081;SDS011;17737;52.586;13.284;2023-03-17T13:35:16;0.30;;;0.30;;
31081;SDS011;17737;52.586;13.284;2023-03-17T13:38:05;0.40;;;0.40;;
31081;SDS011;17737;52.586;13.284;2023-03-17T13:41:14;0.30;;;0.30;;
31081;SDS011;17737;52.586;13.284;2023-03-17T13:44:06;0.30;;;0.30;;
31081;SDS011;17737;52.586;13.284;2023-03-17T13:46:54;0.40;;;0.40;;
31081;SDS011;17737;52.586;13.284;2023-03-17T13:49:35;0.30;;;0.30;;
31081;SDS011;17737;52.586;13.284;2023-03-17T13:52:06;0.25;;;0.25;;
31081;SDS011;17737;52.586;13.284;2023-03-17T13:54:41;0.30;;;0.30;;
31081;SDS011;17737;52.586;13.284;2023-03-17T13:57:23;0.30;;;0.30;;
31081;SDS011;17737;52.586;13.284;2023-03-17T13:59:56;0.30;;;0.30;;
31081;SDS011;17737;52.586;13.284;2023-03-17T14:02:31;0.30;;;0.30;;
31081;SDS011;17737;52.586;13.284;2023-03-17T14:05:04;0.30;;;0.30;;
31081;SDS011;17737;52.586;13.284;2023-03-17T14:07:39;0.40;;;0.40;;
31081;SDS011;17737;52.586;13.284;2023-03-17T14:12:48;0.30;;;0.30;;
31081;SDS011;17737;52.586;13.284;2023-03-17T14:15:27;0.20;;;0.20;;
31081;SDS011;17737;52.586;13.284;2023-03-17T14:18:06;0.40;;;0.40;;
31081;SDS011;17737;52.586;13.284;2023-03-17T14:20:50;0.30;;;0.30;;
31081;SDS011;17737;52.586;13.284;2023-03-17T14:23:19;0.35;;;0.35;;
31081;SDS011;17737;52.586;13.284;2023-03-17T14:25:47;0.30;;;0.30;;
31081;SDS011;17737;52.586;13.284;2023-03-17T14:28:17;0.30;;;0.30;;
31081;SDS011;17737;52.586;13.284;2023-03-17T14:30:54;0.40;;;0.40;;
31081;SDS011;17737;52.586;13.284;2023-03-17T14:33:26;0.25;;;0.25;;
31081;SDS011;17737;52.586;13.284;2023-03-17T14:35:58;0.30;;;0.30;;
31081;SDS011;17737;52.586;13.284;2023-03-17T14:38:30;0.40;;;0.40;;
31081;SDS011;17737;52.586;13.284;2023-03-17T14:41:01;0.30;;;0.30;;
31081;SDS011;17737;52.586;13.284;2023-03-17T14:43:32;0.35;;;0.35;;
31081;SDS011;17737;52.586;13.284;2023-03-17T14:46:04;0.30;;;0.30;;
31081;SDS011;17737;52.586;13.284;2023-03-17T14:48:35;0.30;;;0.30;;
31081;SDS011;17737;52.586;13.284;2023-03-17T14:51:07;0.30;;;0.30;;
31081;SDS011;17737;52.586;13.284;2023-03-17T14:53:41;0.40;;;0.40;;
31081;SDS011;17737;52.586;13.284;2023-03-17T14:56:11;0.30;;;0.30;;
31081;SDS011;17737;52.586;13.284;2023-03-17T14:58:40;0.30;;;0.30;;
31081;SDS011;17737;52.586;13.284;2023-03-17T15:01:15;0.40;;;0.40;;
31081;SDS011;17737;52.586;13.284;2023-03-17T15:04:05;0.40;;;0.40;;
31081;SDS011;17737;52.586;13.284;2023-03-17T15:06:45;0.32;;;0.32;;
31081;SDS011;17737;52.586;13.284;2023-03-17T15:09:16;0.40;;;0.40;;
31081;SDS011;17737;52.586;13.284;2023-03-17T15:11:52;0.40;;;0.40;;
31081;SDS011;17737;52.586;13.284;2023-03-17T15:14:32;0.30;;;0.30;;
31081;SDS011;17737;52.586;13.284;2023-03-17T15:17:05;0.32;;;0.32;;
31081;SDS011;17737;52.586;13.284;2023-03-17T15:19:45;0.28;;;0.28;;
31081;SDS011;17737;52.586;13.284;2023-03-17T15:22:23;0.30;;;0.30;;
31081;SDS011;17737;52.586;13.284;2023-03-17T15:24:59;0.40;;;0.40;;
31081;SDS011;17737;52.586;13.284;2023-03-17T15:27:29;0.30;;;0.30;;
31081;SDS011;17737;52.586;13.284;2023-03-17T15:29:58;0.30;;;0.30;;
31081;SDS011;17737;52.586;13.284;2023-03-17T15:32:28;0.40;;;0.40;;
31081;SDS011;17737;52.586;13.284;2023-03-17T15:34:57;0.40;;;0.40;;
31081;SDS011;17737;52.586;13.284;2023-03-17T15:37:26;0.25;;;0.25;;
31081;SDS011;17737;52.586;13.284;2023-03-17T15:39:57;0.32;;;0.32;;
31081;SDS011;17737;52.586;13.284;2023-03-17T15:42:27;0.40;;;0.40;;
31081;SDS011;17737;52.586;13.284;2023-03-17T15:44:57;0.40;;;0.40;;
31081;SDS011;17737;52.586;13.284;2023-03-17T15:47:28;0.30;;;0.30;;
31081;SDS011;17737;52.586;13.284;2023-03-17T15:50:01;0.30;;;0.30;;
31081;SDS011;17737;52.586;13.284;2023-03-17T15:52:39;0.32;;;0.32;;
31081;SDS011;17737;52.586;13.284;2023-03-17T15:55:13;0.30;;;0.30;;